Zakirovskiy Airport

Jump to: basic info | weather | comments

Related pages: nearby airports | nearby navaids

Basic information (top)

Location: lon 43.448002, lat 77.049599, elev 2,038 ft / 621 m msl
Status: small_airport

Weather (top)

Current conditions for Almaty Airport 6nm (11km) S (rec'd 2014/11/29 02:00Z):

UAAA 290200Z 00000MPS 0100 R23R/0250N R23L/0200N FZFG FU VV001 M14/M16 Q1033 R23R/91//50 R23L/91//60 NOSIG RMK QBB040

Airport forecast for Almaty Airport 6nm (11km) S (rec'd 2014/11/28 00:18Z):

TAF TAF UAAA 282300Z 2900/2924 14004MPS 1500 BR FU BKN010 OVC100 TXM08/2908Z TNM17/2901Z 
      TEMPO 2900/2906 0200 FZFG VV001 
      BECMG 2906/2907 02005MPS 3000 
      TEMPO 2911/2924 0200 FZFG VV001

Latest comments (top)

No comments yet for Zakirovskiy Airport

More... (top)

See also NOTAMs and nearby airports and navaids, or visit the Zakirovskiy Airport page at the main OurAirports website..